sensor_id;sensor_type;location;lat;lon;timestamp;temperature;humidity
62904;DHT22;49000;50.698;13.322;2023-09-18T00:00:45;14.60;99.90
62904;DHT22;49000;50.698;13.322;2023-09-18T00:03:11;14.60;99.90
62904;DHT22;49000;50.698;13.322;2023-09-18T00:05:37;14.50;99.90
62904;DHT22;49000;50.698;13.322;2023-09-18T00:08:02;14.50;99.90
62904;DHT22;49000;50.698;13.322;2023-09-18T00:10:28;14.40;99.90
62904;DHT22;49000;50.698;13.322;2023-09-18T00:12:56;14.40;99.90
62904;DHT22;49000;50.698;13.322;2023-09-18T00:15:21;14.30;99.90
62904;DHT22;49000;50.698;13.322;2023-09-18T00:17:47;14.20;99.90
62904;DHT22;49000;50.698;13.322;2023-09-18T00:20:13;14.20;99.90
62904;DHT22;49000;50.698;13.322;2023-09-18T00:22:39;14.20;99.90
62904;DHT22;49000;50.698;13.322;2023-09-18T00:25:04;14.20;99.90
62904;DHT22;49000;50.698;13.322;2023-09-18T00:27:30;14.10;99.90
62904;DHT22;49000;50.698;13.322;2023-09-18T00:29:56;14.10;99.90
62904;DHT22;49000;50.698;13.322;2023-09-18T00:32:21;14.10;99.90
62904;DHT22;49000;50.698;13.322;2023-09-18T00:34:47;14.00;99.90
62904;DHT22;49000;50.698;13.322;2023-09-18T00:37:12;14.10;99.90
62904;DHT22;49000;50.698;13.322;2023-09-18T00:39:38;14.10;99.90
62904;DHT22;49000;50.698;13.322;2023-09-18T00:42:04;14.10;99.90
62904;DHT22;49000;50.698;13.322;2023-09-18T00:44:29;14.10;99.90
62904;DHT22;49000;50.698;13.322;2023-09-18T00:46:55;14.10;99.90
62904;DHT22;49000;50.698;13.322;2023-09-18T00:49:22;14.00;99.90
62904;DHT22;49000;50.698;13.322;2023-09-18T00:51:50;14.10;99.90
62904;DHT22;49000;50.698;13.322;2023-09-18T00:54:18;14.10;99.90
62904;DHT22;49000;50.698;13.322;2023-09-18T00:56:45;14.10;99.90
62904;DHT22;49000;50.698;13.322;2023-09-18T00:59:12;14.00;99.90
62904;DHT22;49000;50.698;13.322;2023-09-18T01:01:40;14.00;99.90
62904;DHT22;49000;50.698;13.322;2023-09-18T01:04:06;13.90;99.90
62904;DHT22;49000;50.698;13.322;2023-09-18T01:06:32;13.90;99.90
62904;DHT22;49000;50.698;13.322;2023-09-18T01:08:58;13.90;99.90
62904;DHT22;49000;50.698;13.322;2023-09-18T01:11:39;13.90;99.90
62904;DHT22;49000;50.698;13.322;2023-09-18T01:14:26;13.90;99.90
62904;DHT22;49000;50.698;13.322;2023-09-18T01:16:57;13.80;99.90
62904;DHT22;49000;50.698;13.322;2023-09-18T01:19:43;13.80;99.90
62904;DHT22;49000;50.698;13.322;2023-09-18T01:22:13;13.80;99.90
62904;DHT22;49000;50.698;13.322;2023-09-18T01:24:40;13.70;99.90
62904;DHT22;49000;50.698;13.322;2023-09-18T01:27:10;13.70;99.90
62904;DHT22;49000;50.698;13.322;2023-09-18T01:29:36;13.60;99.90
62904;DHT22;49000;50.698;13.322;2023-09-18T01:32:02;13.60;99.90
62904;DHT22;49000;50.698;13.322;2023-09-18T01:34:42;13.60;99.90
62904;DHT22;49000;50.698;13.322;2023-09-18T01:37:11;13.60;99.90
62904;DHT22;49000;50.698;13.322;2023-09-18T01:39:38;13.60;99.90
62904;DHT22;49000;50.698;13.322;2023-09-18T01:42:05;13.60;99.90
62904;DHT22;49000;50.698;13.322;2023-09-18T01:44:32;13.60;99.90
62904;DHT22;49000;50.698;13.322;2023-09-18T01:47:00;13.60;99.90
62904;DHT22;49000;50.698;13.322;2023-09-18T01:49:34;13.60;99.90
62904;DHT22;49000;50.698;13.322;2023-09-18T01:52:00;13.60;99.90
62904;DHT22;49000;50.698;13.322;2023-09-18T01:54:26;13.50;99.90
62904;DHT22;49000;50.698;13.322;2023-09-18T01:56:52;13.50;99.90
62904;DHT22;49000;50.698;13.322;2023-09-18T01:59:19;13.50;99.90
62904;DHT22;49000;50.698;13.322;2023-09-18T02:01:45;13.50;99.90
62904;DHT22;49000;50.698;13.322;2023-09-18T02:04:10;13.40;99.90
62904;DHT22;49000;50.698;13.322;2023-09-18T02:06:36;13.40;99.90
62904;DHT22;49000;50.698;13.322;2023-09-18T02:09:02;13.40;99.90
62904;DHT22;49000;50.698;13.322;2023-09-18T02:11:29;13.40;99.90
62904;DHT22;49000;50.698;13.322;2023-09-18T02:13:55;13.30;99.90
62904;DHT22;49000;50.698;13.322;2023-09-18T02:16:22;13.30;99.90
62904;DHT22;49000;50.698;13.322;2023-09-18T02:18:47;13.20;99.90
62904;DHT22;49000;50.698;13.322;2023-09-18T02:21:19;13.20;99.90
62904;DHT22;49000;50.698;13.322;2023-09-18T02:23:45;13.20;99.90
62904;DHT22;49000;50.698;13.322;2023-09-18T02:26:11;13.20;99.90
62904;DHT22;49000;50.698;13.322;2023-09-18T02:28:36;13.20;99.90
62904;DHT22;49000;50.698;13.322;2023-09-18T02:31:02;13.10;99.90
62904;DHT22;49000;50.698;13.322;2023-09-18T02:33:28;13.10;99.90
62904;DHT22;49000;50.698;13.322;2023-09-18T02:35:53;13.10;99.90
62904;DHT22;49000;50.698;13.322;2023-09-18T02:38:19;13.10;99.90
62904;DHT22;49000;50.698;13.322;2023-09-18T02:40:44;13.00;99.90
62904;DHT22;49000;50.698;13.322;2023-09-18T02:43:10;13.00;99.90
62904;DHT22;49000;50.698;13.322;2023-09-18T02:45:35;13.00;99.90
62904;DHT22;49000;50.698;13.322;2023-09-18T02:48:01;13.00;99.90
62904;DHT22;49000;50.698;13.322;2023-09-18T02:50:26;13.00;99.90
62904;DHT22;49000;50.698;13.322;2023-09-18T02:52:52;13.00;99.90
62904;DHT22;49000;50.698;13.322;2023-09-18T02:55:17;12.90;99.90
62904;DHT22;49000;50.698;13.322;2023-09-18T02:57:43;12.90;99.90
62904;DHT22;49000;50.698;13.322;2023-09-18T03:00:09;12.90;99.90
62904;DHT22;49000;50.698;13.322;2023-09-18T03:02:35;12.90;99.90
62904;DHT22;49000;50.698;13.322;2023-09-18T03:05:01;12.90;99.90
62904;DHT22;49000;50.698;13.322;2023-09-18T03:07:26;12.90;99.90
62904;DHT22;49000;50.698;13.322;2023-09-18T03:09:55;12.90;99.90
62904;DHT22;49000;50.698;13.322;2023-09-18T03:12:20;12.90;99.90
62904;DHT22;49000;50.698;13.322;2023-09-18T03:14:47;12.90;99.90
62904;DHT22;49000;50.698;13.322;2023-09-18T03:17:13;12.90;99.90
62904;DHT22;49000;50.698;13.322;2023-09-18T03:19:38;12.80;99.90
62904;DHT22;49000;50.698;13.322;2023-09-18T03:22:04;12.80;99.90
62904;DHT22;49000;50.698;13.322;2023-09-18T03:24:30;12.80;99.90
62904;DHT22;49000;50.698;13.322;2023-09-18T03:26:55;12.80;99.90
62904;DHT22;49000;50.698;13.322;2023-09-18T03:29:21;12.80;99.90
62904;DHT22;49000;50.698;13.322;2023-09-18T03:31:46;12.80;1.00
62904;DHT22;49000;50.698;13.322;2023-09-18T03:34:12;12.80;1.00
62904;DHT22;49000;50.698;13.322;2023-09-18T03:36:38;12.70;1.00
62904;DHT22;49000;50.698;13.322;2023-09-18T03:39:04;12.80;1.00
62904;DHT22;49000;50.698;13.322;2023-09-18T03:41:30;12.70;1.00
62904;DHT22;49000;50.698;13.322;2023-09-18T03:44:00;12.70;1.00
62904;DHT22;49000;50.698;13.322;2023-09-18T03:46:26;12.80;1.00
62904;DHT22;49000;50.698;13.322;2023-09-18T03:48:52;12.80;74.30
62904;DHT22;49000;50.698;13.322;2023-09-18T03:51:17;12.80;99.90
62904;DHT22;49000;50.698;13.322;2023-09-18T03:53:44;12.80;99.90
62904;DHT22;49000;50.698;13.322;2023-09-18T03:56:09;12.70;99.90
62904;DHT22;49000;50.698;13.322;2023-09-18T03:58:35;12.70;99.90
62904;DHT22;49000;50.698;13.322;2023-09-18T04:01:01;12.80;99.90
62904;DHT22;49000;50.698;13.322;2023-09-18T04:03:26;12.70;99.90
62904;DHT22;49000;50.698;13.322;2023-09-18T04:05:52;12.80;99.90
62904;DHT22;49000;50.698;13.322;2023-09-18T04:08:17;12.80;99.90
62904;DHT22;49000;50.698;13.322;2023-09-18T04:10:43;12.90;99.90
62904;DHT22;49000;50.698;13.322;2023-09-18T04:13:10;13.20;99.90
62904;DHT22;49000;50.698;13.322;2023-09-18T04:15:35;13.60;99.90
62904;DHT22;49000;50.698;13.322;2023-09-18T04:18:06;13.70;99.90
62904;DHT22;49000;50.698;13.322;2023-09-18T04:20:32;13.90;99.90
62904;DHT22;49000;50.698;13.322;2023-09-18T04:23:17;14.10;99.90
62904;DHT22;49000;50.698;13.322;2023-09-18T04:25:43;14.50;99.90
62904;DHT22;49000;50.698;13.322;2023-09-18T04:28:08;14.60;99.90
62904;DHT22;49000;50.698;13.322;2023-09-18T04:30:34;14.90;99.90
62904;DHT22;49000;50.698;13.322;2023-09-18T04:32:59;15.00;99.90
62904;DHT22;49000;50.698;13.322;2023-09-18T04:35:25;15.10;99.90
62904;DHT22;49000;50.698;13.322;2023-09-18T04:37:54;15.10;99.90
62904;DHT22;49000;50.698;13.322;2023-09-18T04:40:20;15.00;99.90
62904;DHT22;49000;50.698;13.322;2023-09-18T04:42:45;15.30;99.90
62904;DHT22;49000;50.698;13.322;2023-09-18T04:45:11;15.40;99.90
62904;DHT22;49000;50.698;13.322;2023-09-18T04:47:36;15.50;99.90
62904;DHT22;49000;50.698;13.322;2023-09-18T04:50:02;15.50;99.90
62904;DHT22;49000;50.698;13.322;2023-09-18T04:52:30;15.40;99.90
62904;DHT22;49000;50.698;13.322;2023-09-18T04:54:56;15.40;99.90
62904;DHT22;49000;50.698;13.322;2023-09-18T04:57:22;15.50;99.90
62904;DHT22;49000;50.698;13.322;2023-09-18T04:59:48;15.60;99.90
62904;DHT22;49000;50.698;13.322;2023-09-18T05:02:14;15.50;99.90
62904;DHT22;49000;50.698;13.322;2023-09-18T05:04:40;15.60;99.90
62904;DHT22;49000;50.698;13.322;2023-09-18T05:07:05;15.70;99.90
62904;DHT22;49000;50.698;13.322;2023-09-18T05:09:31;15.90;99.90
62904;DHT22;49000;50.698;13.322;2023-09-18T05:11:58;16.00;99.90
62904;DHT22;49000;50.698;13.322;2023-09-18T05:14:23;16.10;99.90
62904;DHT22;49000;50.698;13.322;2023-09-18T05:16:49;16.20;99.90
62904;DHT22;49000;50.698;13.322;2023-09-18T05:19:14;16.30;99.90
62904;DHT22;49000;50.698;13.322;2023-09-18T05:21:40;16.40;99.90
62904;DHT22;49000;50.698;13.322;2023-09-18T05:24:05;16.50;99.90
62904;DHT22;49000;50.698;13.322;2023-09-18T05:26:31;16.50;99.90
62904;DHT22;49000;50.698;13.322;2023-09-18T05:28:57;16.50;99.90
62904;DHT22;49000;50.698;13.322;2023-09-18T05:31:22;16.50;99.90
62904;DHT22;49000;50.698;13.322;2023-09-18T05:33:49;16.50;99.90
62904;DHT22;49000;50.698;13.322;2023-09-18T05:36:15;16.50;99.90
62904;DHT22;49000;50.698;13.322;2023-09-18T05:38:41;16.60;99.90
62904;DHT22;49000;50.698;13.322;2023-09-18T05:41:08;16.60;99.90
62904;DHT22;49000;50.698;13.322;2023-09-18T05:43:35;16.60;99.90
62904;DHT22;49000;50.698;13.322;2023-09-18T05:46:01;16.60;99.90
62904;DHT22;49000;50.698;13.322;2023-09-18T05:48:27;16.60;99.90
62904;DHT22;49000;50.698;13.322;2023-09-18T05:50:52;16.60;99.90
62904;DHT22;49000;50.698;13.322;2023-09-18T05:53:20;16.60;99.90
62904;DHT22;49000;50.698;13.322;2023-09-18T05:55:47;16.60;99.90
62904;DHT22;49000;50.698;13.322;2023-09-18T05:58:12;16.60;99.90
62904;DHT22;49000;50.698;13.322;2023-09-18T06:00:39;16.60;99.90
62904;DHT22;49000;50.698;13.322;2023-09-18T06:03:05;16.60;99.90
62904;DHT22;49000;50.698;13.322;2023-09-18T06:05:31;16.70;99.90
62904;DHT22;49000;50.698;13.322;2023-09-18T06:07:59;16.70;99.90
62904;DHT22;49000;50.698;13.322;2023-09-18T06:10:25;16.80;99.90
62904;DHT22;49000;50.698;13.322;2023-09-18T06:12:50;16.80;99.90
62904;DHT22;49000;50.698;13.322;2023-09-18T06:15:16;16.80;99.90
62904;DHT22;49000;50.698;13.322;2023-09-18T06:17:43;16.80;99.90
62904;DHT22;49000;50.698;13.322;2023-09-18T06:20:09;16.90;99.90
62904;DHT22;49000;50.698;13.322;2023-09-18T06:22:40;16.90;99.90
62904;DHT22;49000;50.698;13.322;2023-09-18T06:25:06;16.90;99.90
62904;DHT22;49000;50.698;13.322;2023-09-18T06:27:35;16.90;99.90
62904;DHT22;49000;50.698;13.322;2023-09-18T06:30:02;16.90;99.90
62904;DHT22;49000;50.698;13.322;2023-09-18T06:32:28;17.00;99.90
62904;DHT22;49000;50.698;13.322;2023-09-18T06:34:53;17.10;99.90
62904;DHT22;49000;50.698;13.322;2023-09-18T06:37:19;17.10;99.90
62904;DHT22;49000;50.698;13.322;2023-09-18T06:39:45;17.10;99.90
62904;DHT22;49000;50.698;13.322;2023-09-18T06:42:11;17.10;99.90
62904;DHT22;49000;50.698;13.322;2023-09-18T06:44:37;17.20;99.90
62904;DHT22;49000;50.698;13.322;2023-09-18T06:47:03;17.30;99.90
62904;DHT22;49000;50.698;13.322;2023-09-18T06:49:29;17.50;99.90
62904;DHT22;49000;50.698;13.322;2023-09-18T06:51:56;17.50;99.90
62904;DHT22;49000;50.698;13.322;2023-09-18T06:54:21;17.60;99.90
62904;DHT22;49000;50.698;13.322;2023-09-18T06:56:47;17.70;99.90
62904;DHT22;49000;50.698;13.322;2023-09-18T06:59:13;17.90;99.90
62904;DHT22;49000;50.698;13.322;2023-09-18T07:01:39;18.10;99.90
62904;DHT22;49000;50.698;13.322;2023-09-18T07:04:05;18.10;99.90
62904;DHT22;49000;50.698;13.322;2023-09-18T07:06:31;18.30;99.90
62904;DHT22;49000;50.698;13.322;2023-09-18T07:08:56;18.40;99.90
62904;DHT22;49000;50.698;13.322;2023-09-18T07:11:22;18.50;99.90
62904;DHT22;49000;50.698;13.322;2023-09-18T07:13:47;18.60;99.90
62904;DHT22;49000;50.698;13.322;2023-09-18T07:16:13;18.70;99.90
62904;DHT22;49000;50.698;13.322;2023-09-18T07:18:39;18.90;99.90
62904;DHT22;49000;50.698;13.322;2023-09-18T07:21:04;19.00;99.90
62904;DHT22;49000;50.698;13.322;2023-09-18T07:23:30;19.20;99.90
62904;DHT22;49000;50.698;13.322;2023-09-18T07:25:55;19.40;99.70
62904;DHT22;49000;50.698;13.322;2023-09-18T07:28:24;19.60;87.80
62904;DHT22;49000;50.698;13.322;2023-09-18T07:30:49;19.90;75.10
62904;DHT22;49000;50.698;13.322;2023-09-18T07:33:15;19.90;77.80
62904;DHT22;49000;50.698;13.322;2023-09-18T07:35:44;20.10;54.40
62904;DHT22;49000;50.698;13.322;2023-09-18T07:38:12;20.40;62.60
62904;DHT22;49000;50.698;13.322;2023-09-18T07:40:38;20.60;48.70
62904;DHT22;49000;50.698;13.322;2023-09-18T07:43:03;20.70;28.10
62904;DHT22;49000;50.698;13.322;2023-09-18T07:45:29;20.70;24.80
62904;DHT22;49000;50.698;13.322;2023-09-18T07:47:54;20.70;29.90
62904;DHT22;49000;50.698;13.322;2023-09-18T07:50:20;20.80;21.90
62904;DHT22;49000;50.698;13.322;2023-09-18T07:52:45;20.80;21.90
62904;DHT22;49000;50.698;13.322;2023-09-18T07:55:11;20.90;21.60
62904;DHT22;49000;50.698;13.322;2023-09-18T07:57:36;21.00;20.70
62904;DHT22;49000;50.698;13.322;2023-09-18T08:00:03;21.30;22.20
62904;DHT22;49000;50.698;13.322;2023-09-18T08:02:38;21.50;16.70
62904;DHT22;49000;50.698;13.322;2023-09-18T08:05:04;21.50;15.30
62904;DHT22;49000;50.698;13.322;2023-09-18T08:07:30;21.60;11.00
62904;DHT22;49000;50.698;13.322;2023-09-18T08:09:56;21.70;14.60
62904;DHT22;49000;50.698;13.322;2023-09-18T08:12:23;21.70;6.00
62904;DHT22;49000;50.698;13.322;2023-09-18T08:14:48;21.60;11.10
62904;DHT22;49000;50.698;13.322;2023-09-18T08:17:15;21.50;10.50
62904;DHT22;49000;50.698;13.322;2023-09-18T08:19:41;21.50;14.30
62904;DHT22;49000;50.698;13.322;2023-09-18T08:22:07;21.60;10.00
62904;DHT22;49000;50.698;13.322;2023-09-18T08:24:33;21.60;9.30
62904;DHT22;49000;50.698;13.322;2023-09-18T08:26:58;21.80;8.40
62904;DHT22;49000;50.698;13.322;2023-09-18T08:29:24;22.20;8.40
62904;DHT22;49000;50.698;13.322;2023-09-18T08:31:50;22.40;1.00
62904;DHT22;49000;50.698;13.322;2023-09-18T08:34:18;22.60;1.00
62904;DHT22;49000;50.698;13.322;2023-09-18T08:36:44;23.10;1.00
62904;DHT22;49000;50.698;13.322;2023-09-18T08:39:09;23.50;1.00
62904;DHT22;49000;50.698;13.322;2023-09-18T08:41:40;23.70;1.00
62904;DHT22;49000;50.698;13.322;2023-09-18T08:44:08;23.90;1.00
62904;DHT22;49000;50.698;13.322;2023-09-18T08:46:35;24.30;1.00
62904;DHT22;49000;50.698;13.322;2023-09-18T08:49:01;24.10;1.00
62904;DHT22;49000;50.698;13.322;2023-09-18T08:51:27;23.80;1.00
62904;DHT22;49000;50.698;13.322;2023-09-18T08:53:54;23.90;1.00
62904;DHT22;49000;50.698;13.322;2023-09-18T08:56:21;23.70;1.00
62904;DHT22;49000;50.698;13.322;2023-09-18T08:58:47;23.80;1.00
62904;DHT22;49000;50.698;13.322;2023-09-18T09:01:12;23.50;1.00
62904;DHT22;49000;50.698;13.322;2023-09-18T09:03:39;23.60;1.00
62904;DHT22;49000;50.698;13.322;2023-09-18T09:06:06;23.90;1.00
62904;DHT22;49000;50.698;13.322;2023-09-18T09:08:32;24.00;1.00
62904;DHT22;49000;50.698;13.322;2023-09-18T09:10:58;23.90;1.00
62904;DHT22;49000;50.698;13.322;2023-09-18T09:13:24;24.10;1.00
62904;DHT22;49000;50.698;13.322;2023-09-18T09:15:55;24.20;1.00
62904;DHT22;49000;50.698;13.322;2023-09-18T09:18:25;24.00;1.00
62904;DHT22;49000;50.698;13.322;2023-09-18T09:20:55;24.10;1.00
62904;DHT22;49000;50.698;13.322;2023-09-18T09:23:23;24.30;1.00
62904;DHT22;49000;50.698;13.322;2023-09-18T09:25:49;24.20;1.00
62904;DHT22;49000;50.698;13.322;2023-09-18T09:28:15;23.90;1.00
62904;DHT22;49000;50.698;13.322;2023-09-18T09:30:41;23.70;1.00
62904;DHT22;49000;50.698;13.322;2023-09-18T09:33:07;23.60;1.00
62904;DHT22;49000;50.698;13.322;2023-09-18T09:35:37;23.60;1.00
62904;DHT22;49000;50.698;13.322;2023-09-18T09:38:11;23.60;1.00
62904;DHT22;49000;50.698;13.322;2023-09-18T09:40:41;23.60;1.00
62904;DHT22;49000;50.698;13.322;2023-09-18T09:43:12;23.30;1.00
62904;DHT22;49000;50.698;13.322;2023-09-18T09:45:41;23.20;1.00
62904;DHT22;49000;50.698;13.322;2023-09-18T09:48:07;23.20;1.00
62904;DHT22;49000;50.698;13.322;2023-09-18T09:50:43;23.50;1.00
62904;DHT22;49000;50.698;13.322;2023-09-18T09:53:11;23.70;1.00
62904;DHT22;49000;50.698;13.322;2023-09-18T09:55:37;23.90;1.00
62904;DHT22;49000;50.698;13.322;2023-09-18T09:58:05;24.10;1.00
62904;DHT22;49000;50.698;13.322;2023-09-18T10:00:51;24.20;1.00
62904;DHT22;49000;50.698;13.322;2023-09-18T10:03:19;24.10;1.00
62904;DHT22;49000;50.698;13.322;2023-09-18T10:05:48;23.90;1.00
62904;DHT22;49000;50.698;13.322;2023-09-18T10:08:22;23.90;1.00
62904;DHT22;49000;50.698;13.322;2023-09-18T10:10:50;23.80;1.00
62904;DHT22;49000;50.698;13.322;2023-09-18T10:13:18;23.90;1.00
62904;DHT22;49000;50.698;13.322;2023-09-18T10:15:48;24.00;1.00
62904;DHT22;49000;50.698;13.322;2023-09-18T10:19:00;24.20;1.00
62904;DHT22;49000;50.698;13.322;2023-09-18T10:21:35;24.60;1.00
62904;DHT22;49000;50.698;13.322;2023-09-18T10:26:59;24.60;1.00
62904;DHT22;49000;50.698;13.322;2023-09-18T10:29:26;24.60;1.00
62904;DHT22;49000;50.698;13.322;2023-09-18T10:31:53;24.50;1.00
62904;DHT22;49000;50.698;13.322;2023-09-18T10:34:20;24.50;1.00
62904;DHT22;49000;50.698;13.322;2023-09-18T10:36:53;24.30;1.00
62904;DHT22;49000;50.698;13.322;2023-09-18T10:39:20;24.10;1.00
62904;DHT22;49000;50.698;13.322;2023-09-18T10:41:51;23.80;1.00
62904;DHT22;49000;50.698;13.322;2023-09-18T10:44:18;23.90;1.00
62904;DHT22;49000;50.698;13.322;2023-09-18T10:46:48;23.70;1.00
62904;DHT22;49000;50.698;13.322;2023-09-18T10:49:15;23.50;1.00
62904;DHT22;49000;50.698;13.322;2023-09-18T10:51:41;23.50;1.00
62904;DHT22;49000;50.698;13.322;2023-09-18T10:54:11;23.40;1.00
62904;DHT22;49000;50.698;13.322;2023-09-18T10:56:41;23.50;1.00
62904;DHT22;49000;50.698;13.322;2023-09-18T10:59:07;23.50;1.00
62904;DHT22;49000;50.698;13.322;2023-09-18T11:01:35;23.60;1.00
62904;DHT22;49000;50.698;13.322;2023-09-18T11:04:04;24.00;1.00
62904;DHT22;49000;50.698;13.322;2023-09-18T11:09:31;24.40;1.00
62904;DHT22;49000;50.698;13.322;2023-09-18T11:14:47;24.60;1.00
62904;DHT22;49000;50.698;13.322;2023-09-18T11:17:36;24.60;1.00
62904;DHT22;49000;50.698;13.322;2023-09-18T11:22:55;24.80;1.00
62904;DHT22;49000;50.698;13.322;2023-09-18T11:28:02;25.00;1.00
62904;DHT22;49000;50.698;13.322;2023-09-18T11:30:28;25.20;1.00
62904;DHT22;49000;50.698;13.322;2023-09-18T11:32:55;25.20;1.00
62904;DHT22;49000;50.698;13.322;2023-09-18T11:35:21;25.20;1.00
62904;DHT22;49000;50.698;13.322;2023-09-18T11:37:47;25.60;1.00
62904;DHT22;49000;50.698;13.322;2023-09-18T11:40:32;25.70;1.00
62904;DHT22;49000;50.698;13.322;2023-09-18T11:43:26;25.50;1.00
62904;DHT22;49000;50.698;13.322;2023-09-18T11:45:53;25.70;1.00
62904;DHT22;49000;50.698;13.322;2023-09-18T11:48:20;26.20;1.00
62904;DHT22;49000;50.698;13.322;2023-09-18T11:50:47;26.20;1.00
62904;DHT22;49000;50.698;13.322;2023-09-18T11:53:17;26.20;1.00
62904;DHT22;49000;50.698;13.322;2023-09-18T11:55:43;26.50;1.00
62904;DHT22;49000;50.698;13.322;2023-09-18T11:58:09;26.70;1.00
62904;DHT22;49000;50.698;13.322;2023-09-18T12:00:35;26.90;1.00
62904;DHT22;49000;50.698;13.322;2023-09-18T12:05:51;26.90;1.00
62904;DHT22;49000;50.698;13.322;2023-09-18T12:08:18;27.00;1.00
62904;DHT22;49000;50.698;13.322;2023-09-18T12:10:43;27.00;1.00
62904;DHT22;49000;50.698;13.322;2023-09-18T12:13:09;27.00;1.00
62904;DHT22;49000;50.698;13.322;2023-09-18T12:15:34;27.20;1.00
62904;DHT22;49000;50.698;13.322;2023-09-18T12:18:07;27.50;1.00
62904;DHT22;49000;50.698;13.322;2023-09-18T12:20:34;27.80;1.00
62904;DHT22;49000;50.698;13.322;2023-09-18T12:23:00;27.90;1.00
62904;DHT22;49000;50.698;13.322;2023-09-18T12:25:25;27.90;1.00
62904;DHT22;49000;50.698;13.322;2023-09-18T12:27:52;27.90;1.00
62904;DHT22;49000;50.698;13.322;2023-09-18T12:30:19;27.70;1.00
62904;DHT22;49000;50.698;13.322;2023-09-18T12:32:50;27.50;1.00
62904;DHT22;49000;50.698;13.322;2023-09-18T12:35:16;27.40;1.00
62904;DHT22;49000;50.698;13.322;2023-09-18T12:37:44;27.30;1.00
62904;DHT22;49000;50.698;13.322;2023-09-18T12:40:23;27.20;1.00
62904;DHT22;49000;50.698;13.322;2023-09-18T12:42:50;27.20;1.00
62904;DHT22;49000;50.698;13.322;2023-09-18T12:45:16;27.20;1.00
62904;DHT22;49000;50.698;13.322;2023-09-18T12:47:43;27.20;1.00
62904;DHT22;49000;50.698;13.322;2023-09-18T12:50:12;27.20;1.00
62904;DHT22;49000;50.698;13.322;2023-09-18T12:52:37;27.20;1.00
62904;DHT22;49000;50.698;13.322;2023-09-18T12:55:03;27.40;1.00
62904;DHT22;49000;50.698;13.322;2023-09-18T12:57:32;27.60;1.00
62904;DHT22;49000;50.698;13.322;2023-09-18T12:59:57;27.90;1.00
62904;DHT22;49000;50.698;13.322;2023-09-18T13:02:23;27.90;1.00
62904;DHT22;49000;50.698;13.322;2023-09-18T13:04:56;28.10;1.00
62904;DHT22;49000;50.698;13.322;2023-09-18T13:07:22;28.10;1.00
62904;DHT22;49000;50.698;13.322;2023-09-18T13:12:24;27.90;1.00
62904;DHT22;49000;50.698;13.322;2023-09-18T13:15:00;27.80;1.00
62904;DHT22;49000;50.698;13.322;2023-09-18T13:17:44;27.70;1.00
62904;DHT22;49000;50.698;13.322;2023-09-18T13:20:14;27.30;1.00
62904;DHT22;49000;50.698;13.322;2023-09-18T13:22:41;27.20;1.00
62904;DHT22;49000;50.698;13.322;2023-09-18T13:25:10;27.20;1.00
62904;DHT22;49000;50.698;13.322;2023-09-18T13:27:38;27.10;1.00
62904;DHT22;49000;50.698;13.322;2023-09-18T13:30:08;26.80;1.00
62904;DHT22;49000;50.698;13.322;2023-09-18T13:32:35;26.30;1.00
62904;DHT22;49000;50.698;13.322;2023-09-18T13:35:02;26.30;1.00
62904;DHT22;49000;50.698;13.322;2023-09-18T13:37:31;26.30;1.00
62904;DHT22;49000;50.698;13.322;2023-09-18T13:39:56;26.40;1.00
62904;DHT22;49000;50.698;13.322;2023-09-18T13:42:22;26.50;1.00
62904;DHT22;49000;50.698;13.322;2023-09-18T13:44:47;26.50;1.00
62904;DHT22;49000;50.698;13.322;2023-09-18T13:47:14;26.30;1.00
62904;DHT22;49000;50.698;13.322;2023-09-18T13:49:40;26.30;1.00
62904;DHT22;49000;50.698;13.322;2023-09-18T13:52:06;26.20;1.00
62904;DHT22;49000;50.698;13.322;2023-09-18T13:54:31;25.90;1.00
62904;DHT22;49000;50.698;13.322;2023-09-18T13:56:57;25.90;1.00
62904;DHT22;49000;50.698;13.322;2023-09-18T13:59:22;25.90;1.00
62904;DHT22;49000;50.698;13.322;2023-09-18T14:01:48;25.90;1.00
62904;DHT22;49000;50.698;13.322;2023-09-18T14:04:13;25.80;1.00
62904;DHT22;49000;50.698;13.322;2023-09-18T14:06:39;25.70;1.00
62904;DHT22;49000;50.698;13.322;2023-09-18T14:09:04;25.80;1.00
62904;DHT22;49000;50.698;13.322;2023-09-18T14:11:31;25.70;1.00
62904;DHT22;49000;50.698;13.322;2023-09-18T14:13:56;25.70;1.00
62904;DHT22;49000;50.698;13.322;2023-09-18T14:16:22;25.60;1.00
62904;DHT22;49000;50.698;13.322;2023-09-18T14:18:47;25.70;1.00
62904;DHT22;49000;50.698;13.322;2023-09-18T14:21:13;25.90;1.00
62904;DHT22;49000;50.698;13.322;2023-09-18T14:23:39;26.30;1.00
62904;DHT22;49000;50.698;13.322;2023-09-18T14:26:04;26.60;1.00
62904;DHT22;49000;50.698;13.322;2023-09-18T14:28:31;26.50;1.00
62904;DHT22;49000;50.698;13.322;2023-09-18T14:30:58;26.30;1.00
62904;DHT22;49000;50.698;13.322;2023-09-18T14:33:23;25.70;1.00
62904;DHT22;49000;50.698;13.322;2023-09-18T14:35:49;25.30;1.00
62904;DHT22;49000;50.698;13.322;2023-09-18T14:38:15;24.90;1.00
62904;DHT22;49000;50.698;13.322;2023-09-18T14:40:41;24.80;1.00
62904;DHT22;49000;50.698;13.322;2023-09-18T14:43:08;24.80;1.00
62904;DHT22;49000;50.698;13.322;2023-09-18T14:45:33;24.60;1.00
62904;DHT22;49000;50.698;13.322;2023-09-18T14:48:00;24.30;1.00
62904;DHT22;49000;50.698;13.322;2023-09-18T14:50:25;23.80;1.00
62904;DHT22;49000;50.698;13.322;2023-09-18T14:52:51;23.50;1.00
62904;DHT22;49000;50.698;13.322;2023-09-18T14:55:16;23.50;1.00
62904;DHT22;49000;50.698;13.322;2023-09-18T14:57:42;23.30;1.00
62904;DHT22;49000;50.698;13.322;2023-09-18T15:00:08;23.10;1.00
62904;DHT22;49000;50.698;13.322;2023-09-18T15:02:33;23.10;1.00
62904;DHT22;49000;50.698;13.322;2023-09-18T15:05:00;23.20;1.00
62904;DHT22;49000;50.698;13.322;2023-09-18T15:07:26;23.40;1.00
62904;DHT22;49000;50.698;13.322;2023-09-18T15:09:52;23.50;1.00
62904;DHT22;49000;50.698;13.322;2023-09-18T15:12:17;23.50;1.00
62904;DHT22;49000;50.698;13.322;2023-09-18T15:14:43;23.40;1.00
62904;DHT22;49000;50.698;13.322;2023-09-18T15:17:09;23.40;1.00
62904;DHT22;49000;50.698;13.322;2023-09-18T15:19:34;22.90;1.00
62904;DHT22;49000;50.698;13.322;2023-09-18T15:22:00;22.80;1.00
62904;DHT22;49000;50.698;13.322;2023-09-18T15:24:26;22.60;1.00
62904;DHT22;49000;50.698;13.322;2023-09-18T15:26:52;22.50;1.00
62904;DHT22;49000;50.698;13.322;2023-09-18T15:29:17;22.40;1.00
62904;DHT22;49000;50.698;13.322;2023-09-18T15:31:43;22.40;1.00
62904;DHT22;49000;50.698;13.322;2023-09-18T15:34:09;22.40;1.00
62904;DHT22;49000;50.698;13.322;2023-09-18T15:36:35;22.50;1.00
62904;DHT22;49000;50.698;13.322;2023-09-18T15:39:00;22.50;1.00
62904;DHT22;49000;50.698;13.322;2023-09-18T15:41:26;22.50;1.00